sensor_id;sensor_type;location;lat;lon;timestamp;P1;durP1;ratioP1;P2;durP2;ratioP2
3847;SDS011;1939;48.720;9.166;2022-12-10T00:02:16;53.20;;;24.23;;
3847;SDS011;1939;48.720;9.166;2022-12-10T00:04:41;49.33;;;24.47;;
3847;SDS011;1939;48.720;9.166;2022-12-10T00:07:07;50.90;;;23.43;;
3847;SDS011;1939;48.720;9.166;2022-12-10T00:09:32;50.33;;;24.43;;
3847;SDS011;1939;48.720;9.166;2022-12-10T00:11:57;48.73;;;23.57;;
3847;SDS011;1939;48.720;9.166;2022-12-10T00:14:22;41.40;;;22.30;;
3847;SDS011;1939;48.720;9.166;2022-12-10T00:16:48;47.67;;;23.63;;
3847;SDS011;1939;48.720;9.166;2022-12-10T00:19:13;46.73;;;23.47;;
3847;SDS011;1939;48.720;9.166;2022-12-10T00:21:38;46.20;;;23.83;;
3847;SDS011;1939;48.720;9.166;2022-12-10T00:24:04;45.93;;;21.67;;
3847;SDS011;1939;48.720;9.166;2022-12-10T00:26:30;51.97;;;24.70;;
3847;SDS011;1939;48.720;9.166;2022-12-10T00:28:56;50.60;;;23.60;;
3847;SDS011;1939;48.720;9.166;2022-12-10T00:31:25;52.13;;;24.67;;
3847;SDS011;1939;48.720;9.166;2022-12-10T00:33:52;58.43;;;24.43;;
3847;SDS011;1939;48.720;9.166;2022-12-10T00:36:19;47.63;;;23.03;;
3847;SDS011;1939;48.720;9.166;2022-12-10T00:38:45;51.50;;;23.57;;
3847;SDS011;1939;48.720;9.166;2022-12-10T00:41:11;48.03;;;24.37;;
3847;SDS011;1939;48.720;9.166;2022-12-10T00:43:36;48.30;;;24.30;;
3847;SDS011;1939;48.720;9.166;2022-12-10T00:46:01;53.67;;;24.80;;
3847;SDS011;1939;48.720;9.166;2022-12-10T00:48:27;48.50;;;22.10;;
3847;SDS011;1939;48.720;9.166;2022-12-10T00:53:21;49.27;;;23.27;;
3847;SDS011;1939;48.720;9.166;2022-12-10T00:55:46;47.07;;;22.90;;
3847;SDS011;1939;48.720;9.166;2022-12-10T00:58:11;53.03;;;25.23;;
3847;SDS011;1939;48.720;9.166;2022-12-10T01:00:36;49.70;;;23.37;;
3847;SDS011;1939;48.720;9.166;2022-12-10T01:03:01;50.00;;;23.30;;
3847;SDS011;1939;48.720;9.166;2022-12-10T01:05:27;49.30;;;23.70;;
3847;SDS011;1939;48.720;9.166;2022-12-10T01:07:52;47.37;;;22.43;;
3847;SDS011;1939;48.720;9.166;2022-12-10T01:10:18;50.37;;;24.50;;
3847;SDS011;1939;48.720;9.166;2022-12-10T01:12:43;54.80;;;25.47;;
3847;SDS011;1939;48.720;9.166;2022-12-10T01:15:09;48.47;;;24.67;;
3847;SDS011;1939;48.720;9.166;2022-12-10T01:17:35;45.07;;;23.33;;
3847;SDS011;1939;48.720;9.166;2022-12-10T01:20:00;54.13;;;24.33;;
3847;SDS011;1939;48.720;9.166;2022-12-10T01:22:25;45.87;;;24.00;;
3847;SDS011;1939;48.720;9.166;2022-12-10T01:24:50;46.23;;;22.77;;
3847;SDS011;1939;48.720;9.166;2022-12-10T01:27:17;48.33;;;24.03;;
3847;SDS011;1939;48.720;9.166;2022-12-10T01:29:42;41.87;;;23.63;;
3847;SDS011;1939;48.720;9.166;2022-12-10T01:32:07;55.03;;;24.37;;
3847;SDS011;1939;48.720;9.166;2022-12-10T01:34:32;50.00;;;24.20;;
3847;SDS011;1939;48.720;9.166;2022-12-10T01:36:57;51.33;;;27.10;;
3847;SDS011;1939;48.720;9.166;2022-12-10T01:39:23;54.23;;;25.47;;
3847;SDS011;1939;48.720;9.166;2022-12-10T01:46:40;58.00;;;25.07;;
3847;SDS011;1939;48.720;9.166;2022-12-10T01:49:07;50.10;;;24.50;;
3847;SDS011;1939;48.720;9.166;2022-12-10T01:51:34;49.13;;;24.07;;
3847;SDS011;1939;48.720;9.166;2022-12-10T01:54:00;40.20;;;21.50;;
3847;SDS011;1939;48.720;9.166;2022-12-10T01:56:25;44.97;;;22.90;;
3847;SDS011;1939;48.720;9.166;2022-12-10T01:58:51;50.47;;;24.47;;
3847;SDS011;1939;48.720;9.166;2022-12-10T02:01:28;44.03;;;22.13;;
3847;SDS011;1939;48.720;9.166;2022-12-10T02:11:26;45.33;;;22.97;;
3847;SDS011;1939;48.720;9.166;2022-12-10T02:16:19;37.73;;;22.10;;
3847;SDS011;1939;48.720;9.166;2022-12-10T02:18:48;52.93;;;24.60;;
3847;SDS011;1939;48.720;9.166;2022-12-10T02:21:17;48.53;;;24.20;;
3847;SDS011;1939;48.720;9.166;2022-12-10T02:23:48;51.63;;;22.53;;
3847;SDS011;1939;48.720;9.166;2022-12-10T02:26:15;47.67;;;22.87;;
3847;SDS011;1939;48.720;9.166;2022-12-10T02:31:15;50.30;;;21.90;;
3847;SDS011;1939;48.720;9.166;2022-12-10T02:33:43;49.10;;;22.50;;
3847;SDS011;1939;48.720;9.166;2022-12-10T02:36:10;50.37;;;22.87;;
3847;SDS011;1939;48.720;9.166;2022-12-10T02:38:38;46.57;;;22.13;;
3847;SDS011;1939;48.720;9.166;2022-12-10T02:41:05;46.97;;;21.73;;
3847;SDS011;1939;48.720;9.166;2022-12-10T02:43:32;52.70;;;23.50;;
3847;SDS011;1939;48.720;9.166;2022-12-10T02:45:58;46.03;;;22.80;;
3847;SDS011;1939;48.720;9.166;2022-12-10T02:48:24;46.30;;;22.13;;
3847;SDS011;1939;48.720;9.166;2022-12-10T02:50:50;43.37;;;23.07;;
3847;SDS011;1939;48.720;9.166;2022-12-10T02:53:15;43.80;;;21.90;;
3847;SDS011;1939;48.720;9.166;2022-12-10T02:55:50;45.57;;;22.70;;
3847;SDS011;1939;48.720;9.166;2022-12-10T03:03:53;46.67;;;21.30;;
3847;SDS011;1939;48.720;9.166;2022-12-10T03:06:22;43.00;;;22.80;;
3847;SDS011;1939;48.720;9.166;2022-12-10T03:08:53;45.47;;;22.77;;
3847;SDS011;1939;48.720;9.166;2022-12-10T03:11:22;53.30;;;22.97;;
3847;SDS011;1939;48.720;9.166;2022-12-10T03:13:58;53.97;;;25.60;;
3847;SDS011;1939;48.720;9.166;2022-12-10T03:16:25;48.37;;;23.20;;
3847;SDS011;1939;48.720;9.166;2022-12-10T03:18:52;36.80;;;22.47;;
3847;SDS011;1939;48.720;9.166;2022-12-10T03:21:19;44.77;;;21.80;;
3847;SDS011;1939;48.720;9.166;2022-12-10T03:23:46;39.47;;;20.33;;
3847;SDS011;1939;48.720;9.166;2022-12-10T03:26:11;52.73;;;23.67;;
3847;SDS011;1939;48.720;9.166;2022-12-10T03:28:38;53.90;;;23.57;;
3847;SDS011;1939;48.720;9.166;2022-12-10T03:31:04;54.63;;;23.60;;
3847;SDS011;1939;48.720;9.166;2022-12-10T03:33:31;48.07;;;22.67;;
3847;SDS011;1939;48.720;9.166;2022-12-10T03:35:56;49.47;;;21.70;;
3847;SDS011;1939;48.720;9.166;2022-12-10T03:38:22;46.00;;;22.60;;
3847;SDS011;1939;48.720;9.166;2022-12-10T03:40:47;49.73;;;23.67;;
3847;SDS011;1939;48.720;9.166;2022-12-10T03:43:13;43.07;;;21.33;;
3847;SDS011;1939;48.720;9.166;2022-12-10T03:45:39;55.03;;;23.83;;
3847;SDS011;1939;48.720;9.166;2022-12-10T03:48:04;45.57;;;22.20;;
3847;SDS011;1939;48.720;9.166;2022-12-10T03:50:29;40.80;;;22.60;;
3847;SDS011;1939;48.720;9.166;2022-12-10T03:52:54;47.83;;;22.80;;
3847;SDS011;1939;48.720;9.166;2022-12-10T03:55:20;46.43;;;21.87;;
3847;SDS011;1939;48.720;9.166;2022-12-10T03:57:45;43.97;;;22.57;;
3847;SDS011;1939;48.720;9.166;2022-12-10T04:00:10;46.80;;;23.90;;
3847;SDS011;1939;48.720;9.166;2022-12-10T04:02:36;44.03;;;22.67;;
3847;SDS011;1939;48.720;9.166;2022-12-10T04:05:01;45.90;;;23.50;;
3847;SDS011;1939;48.720;9.166;2022-12-10T04:07:26;41.70;;;21.40;;
3847;SDS011;1939;48.720;9.166;2022-12-10T04:09:51;43.30;;;23.13;;
3847;SDS011;1939;48.720;9.166;2022-12-10T04:12:17;44.90;;;20.67;;
3847;SDS011;1939;48.720;9.166;2022-12-10T04:14:42;46.97;;;22.40;;
3847;SDS011;1939;48.720;9.166;2022-12-10T04:17:26;40.57;;;20.80;;
3847;SDS011;1939;48.720;9.166;2022-12-10T04:19:51;50.50;;;24.03;;
3847;SDS011;1939;48.720;9.166;2022-12-10T04:22:16;47.07;;;22.70;;
3847;SDS011;1939;48.720;9.166;2022-12-10T04:25:00;41.60;;;20.23;;
3847;SDS011;1939;48.720;9.166;2022-12-10T04:27:44;47.13;;;20.80;;
3847;SDS011;1939;48.720;9.166;2022-12-10T04:30:10;37.30;;;18.80;;
3847;SDS011;1939;48.720;9.166;2022-12-10T04:32:35;40.30;;;21.23;;
3847;SDS011;1939;48.720;9.166;2022-12-10T04:35:01;37.10;;;18.77;;
3847;SDS011;1939;48.720;9.166;2022-12-10T04:37:26;43.73;;;21.90;;
3847;SDS011;1939;48.720;9.166;2022-12-10T04:39:52;39.97;;;19.37;;
3847;SDS011;1939;48.720;9.166;2022-12-10T04:42:17;45.17;;;21.37;;
3847;SDS011;1939;48.720;9.166;2022-12-10T04:44:43;43.30;;;21.10;;
3847;SDS011;1939;48.720;9.166;2022-12-10T04:47:08;39.80;;;20.50;;
3847;SDS011;1939;48.720;9.166;2022-12-10T04:49:34;39.60;;;20.97;;
3847;SDS011;1939;48.720;9.166;2022-12-10T04:51:59;44.27;;;21.53;;
3847;SDS011;1939;48.720;9.166;2022-12-10T04:54:25;39.20;;;20.37;;
3847;SDS011;1939;48.720;9.166;2022-12-10T04:56:50;42.40;;;20.53;;
3847;SDS011;1939;48.720;9.166;2022-12-10T04:59:16;39.57;;;22.00;;
3847;SDS011;1939;48.720;9.166;2022-12-10T05:01:41;41.13;;;20.37;;
3847;SDS011;1939;48.720;9.166;2022-12-10T05:04:07;46.87;;;21.57;;
3847;SDS011;1939;48.720;9.166;2022-12-10T05:06:33;39.57;;;20.23;;
3847;SDS011;1939;48.720;9.166;2022-12-10T05:08:59;47.97;;;21.77;;
3847;SDS011;1939;48.720;9.166;2022-12-10T05:11:25;46.60;;;21.83;;
3847;SDS011;1939;48.720;9.166;2022-12-10T05:13:51;44.97;;;21.90;;
3847;SDS011;1939;48.720;9.166;2022-12-10T05:16:17;39.97;;;20.87;;
3847;SDS011;1939;48.720;9.166;2022-12-10T05:18:43;37.10;;;20.50;;
3847;SDS011;1939;48.720;9.166;2022-12-10T05:21:12;40.77;;;20.50;;
3847;SDS011;1939;48.720;9.166;2022-12-10T05:23:39;42.37;;;21.33;;
3847;SDS011;1939;48.720;9.166;2022-12-10T05:26:05;38.03;;;21.57;;
3847;SDS011;1939;48.720;9.166;2022-12-10T05:28:32;43.33;;;21.93;;
3847;SDS011;1939;48.720;9.166;2022-12-10T05:30:58;43.43;;;20.60;;
3847;SDS011;1939;48.720;9.166;2022-12-10T05:33:24;44.53;;;19.60;;
3847;SDS011;1939;48.720;9.166;2022-12-10T05:35:59;39.30;;;19.03;;
3847;SDS011;1939;48.720;9.166;2022-12-10T05:38:25;39.83;;;20.17;;
3847;SDS011;1939;48.720;9.166;2022-12-10T05:40:51;45.03;;;20.63;;
3847;SDS011;1939;48.720;9.166;2022-12-10T05:43:16;41.03;;;20.57;;
3847;SDS011;1939;48.720;9.166;2022-12-10T05:45:42;44.33;;;20.90;;
3847;SDS011;1939;48.720;9.166;2022-12-10T05:48:08;38.73;;;21.20;;
3847;SDS011;1939;48.720;9.166;2022-12-10T05:50:34;39.90;;;20.73;;
3847;SDS011;1939;48.720;9.166;2022-12-10T05:52:59;45.57;;;19.80;;
3847;SDS011;1939;48.720;9.166;2022-12-10T05:55:24;41.30;;;21.70;;
3847;SDS011;1939;48.720;9.166;2022-12-10T05:57:51;43.70;;;20.83;;
3847;SDS011;1939;48.720;9.166;2022-12-10T06:00:16;38.73;;;19.87;;
3847;SDS011;1939;48.720;9.166;2022-12-10T06:02:42;43.10;;;20.50;;
3847;SDS011;1939;48.720;9.166;2022-12-10T06:05:07;43.63;;;22.80;;
3847;SDS011;1939;48.720;9.166;2022-12-10T06:07:32;48.63;;;21.57;;
3847;SDS011;1939;48.720;9.166;2022-12-10T06:09:57;55.47;;;24.40;;
3847;SDS011;1939;48.720;9.166;2022-12-10T06:12:23;48.43;;;23.20;;
3847;SDS011;1939;48.720;9.166;2022-12-10T06:14:48;58.17;;;24.87;;
3847;SDS011;1939;48.720;9.166;2022-12-10T06:17:13;44.10;;;21.40;;
3847;SDS011;1939;48.720;9.166;2022-12-10T06:19:38;53.33;;;23.60;;
3847;SDS011;1939;48.720;9.166;2022-12-10T06:22:03;54.97;;;25.30;;
3847;SDS011;1939;48.720;9.166;2022-12-10T06:24:29;51.10;;;24.27;;
3847;SDS011;1939;48.720;9.166;2022-12-10T06:26:54;58.87;;;26.07;;
3847;SDS011;1939;48.720;9.166;2022-12-10T06:29:19;48.70;;;23.33;;
3847;SDS011;1939;48.720;9.166;2022-12-10T06:31:44;51.20;;;25.70;;
3847;SDS011;1939;48.720;9.166;2022-12-10T06:34:09;55.80;;;23.60;;
3847;SDS011;1939;48.720;9.166;2022-12-10T06:36:35;59.10;;;24.80;;
3847;SDS011;1939;48.720;9.166;2022-12-10T06:39:00;61.73;;;25.43;;
3847;SDS011;1939;48.720;9.166;2022-12-10T06:41:25;55.60;;;25.67;;
3847;SDS011;1939;48.720;9.166;2022-12-10T06:43:51;52.43;;;23.77;;
3847;SDS011;1939;48.720;9.166;2022-12-10T06:46:17;47.83;;;22.20;;
3847;SDS011;1939;48.720;9.166;2022-12-10T06:48:43;53.77;;;24.67;;
3847;SDS011;1939;48.720;9.166;2022-12-10T06:51:09;46.90;;;23.50;;
3847;SDS011;1939;48.720;9.166;2022-12-10T06:53:35;44.87;;;22.47;;
3847;SDS011;1939;48.720;9.166;2022-12-10T06:56:01;51.27;;;24.50;;
3847;SDS011;1939;48.720;9.166;2022-12-10T06:58:30;46.77;;;22.70;;
3847;SDS011;1939;48.720;9.166;2022-12-10T07:01:06;50.87;;;23.10;;
3847;SDS011;1939;48.720;9.166;2022-12-10T07:03:31;52.97;;;25.03;;
3847;SDS011;1939;48.720;9.166;2022-12-10T07:06:00;51.23;;;22.67;;
3847;SDS011;1939;48.720;9.166;2022-12-10T07:08:25;53.03;;;25.90;;
3847;SDS011;1939;48.720;9.166;2022-12-10T07:10:50;57.77;;;25.00;;
3847;SDS011;1939;48.720;9.166;2022-12-10T07:13:15;51.13;;;24.30;;
3847;SDS011;1939;48.720;9.166;2022-12-10T07:15:40;58.33;;;25.03;;
3847;SDS011;1939;48.720;9.166;2022-12-10T07:18:06;56.70;;;24.30;;
3847;SDS011;1939;48.720;9.166;2022-12-10T07:20:31;47.13;;;22.77;;
3847;SDS011;1939;48.720;9.166;2022-12-10T07:22:56;51.83;;;24.37;;
3847;SDS011;1939;48.720;9.166;2022-12-10T07:25:21;53.30;;;25.50;;
3847;SDS011;1939;48.720;9.166;2022-12-10T07:27:46;53.53;;;25.23;;
3847;SDS011;1939;48.720;9.166;2022-12-10T07:30:12;60.40;;;26.50;;
3847;SDS011;1939;48.720;9.166;2022-12-10T07:32:37;52.87;;;24.77;;
3847;SDS011;1939;48.720;9.166;2022-12-10T07:35:02;50.23;;;24.90;;
3847;SDS011;1939;48.720;9.166;2022-12-10T07:37:28;59.30;;;27.13;;
3847;SDS011;1939;48.720;9.166;2022-12-10T07:39:53;47.57;;;20.87;;
3847;SDS011;1939;48.720;9.166;2022-12-10T07:42:18;48.93;;;25.93;;
3847;SDS011;1939;48.720;9.166;2022-12-10T07:44:43;55.37;;;26.80;;
3847;SDS011;1939;48.720;9.166;2022-12-10T07:47:08;49.63;;;25.23;;
3847;SDS011;1939;48.720;9.166;2022-12-10T07:49:34;58.17;;;24.63;;
3847;SDS011;1939;48.720;9.166;2022-12-10T07:51:59;50.97;;;23.40;;
3847;SDS011;1939;48.720;9.166;2022-12-10T07:54:24;53.17;;;25.30;;
3847;SDS011;1939;48.720;9.166;2022-12-10T07:56:49;57.93;;;25.37;;
3847;SDS011;1939;48.720;9.166;2022-12-10T07:59:15;49.10;;;23.90;;
3847;SDS011;1939;48.720;9.166;2022-12-10T08:01:40;53.07;;;21.20;;
3847;SDS011;1939;48.720;9.166;2022-12-10T08:04:05;51.23;;;21.70;;
3847;SDS011;1939;48.720;9.166;2022-12-10T08:06:30;50.70;;;22.23;;
3847;SDS011;1939;48.720;9.166;2022-12-10T08:08:57;58.80;;;23.80;;
3847;SDS011;1939;48.720;9.166;2022-12-10T08:11:22;48.77;;;24.73;;
3847;SDS011;1939;48.720;9.166;2022-12-10T08:13:48;50.10;;;22.43;;
3847;SDS011;1939;48.720;9.166;2022-12-10T08:16:17;58.23;;;24.50;;
3847;SDS011;1939;48.720;9.166;2022-12-10T08:18:43;44.87;;;21.13;;
3847;SDS011;1939;48.720;9.166;2022-12-10T08:21:12;46.53;;;22.20;;
3847;SDS011;1939;48.720;9.166;2022-12-10T08:23:38;45.90;;;23.10;;
3847;SDS011;1939;48.720;9.166;2022-12-10T08:26:04;45.57;;;21.70;;
3847;SDS011;1939;48.720;9.166;2022-12-10T08:28:29;45.77;;;21.20;;
3847;SDS011;1939;48.720;9.166;2022-12-10T08:30:54;42.17;;;21.17;;
3847;SDS011;1939;48.720;9.166;2022-12-10T08:33:20;53.87;;;23.93;;
3847;SDS011;1939;48.720;9.166;2022-12-10T08:35:45;42.40;;;20.70;;
3847;SDS011;1939;48.720;9.166;2022-12-10T08:38:10;45.00;;;22.07;;
3847;SDS011;1939;48.720;9.166;2022-12-10T08:40:38;44.13;;;20.93;;
3847;SDS011;1939;48.720;9.166;2022-12-10T08:43:03;47.60;;;22.20;;
3847;SDS011;1939;48.720;9.166;2022-12-10T08:45:28;46.43;;;21.87;;
3847;SDS011;1939;48.720;9.166;2022-12-10T08:47:54;42.93;;;21.93;;
3847;SDS011;1939;48.720;9.166;2022-12-10T08:50:19;48.37;;;23.37;;
3847;SDS011;1939;48.720;9.166;2022-12-10T08:52:45;42.67;;;22.53;;
3847;SDS011;1939;48.720;9.166;2022-12-10T08:55:10;41.40;;;21.57;;
3847;SDS011;1939;48.720;9.166;2022-12-10T08:57:35;44.37;;;23.57;;
3847;SDS011;1939;48.720;9.166;2022-12-10T09:00:01;49.30;;;22.90;;
3847;SDS011;1939;48.720;9.166;2022-12-10T09:02:26;44.53;;;21.53;;
3847;SDS011;1939;48.720;9.166;2022-12-10T09:04:51;41.00;;;21.50;;
3847;SDS011;1939;48.720;9.166;2022-12-10T09:07:17;40.67;;;21.33;;
3847;SDS011;1939;48.720;9.166;2022-12-10T09:09:43;42.50;;;21.60;;
3847;SDS011;1939;48.720;9.166;2022-12-10T09:12:08;46.40;;;21.73;;
3847;SDS011;1939;48.720;9.166;2022-12-10T09:14:33;44.67;;;22.10;;
3847;SDS011;1939;48.720;9.166;2022-12-10T09:16:58;41.83;;;20.77;;
3847;SDS011;1939;48.720;9.166;2022-12-10T09:19:23;35.90;;;19.70;;
3847;SDS011;1939;48.720;9.166;2022-12-10T09:21:49;40.23;;;20.80;;
3847;SDS011;1939;48.720;9.166;2022-12-10T09:24:14;44.33;;;21.77;;
3847;SDS011;1939;48.720;9.166;2022-12-10T09:26:39;45.60;;;22.33;;
3847;SDS011;1939;48.720;9.166;2022-12-10T09:29:04;41.33;;;20.70;;
3847;SDS011;1939;48.720;9.166;2022-12-10T09:31:30;42.20;;;22.87;;
3847;SDS011;1939;48.720;9.166;2022-12-10T09:33:55;45.67;;;22.43;;
3847;SDS011;1939;48.720;9.166;2022-12-10T09:36:20;44.90;;;21.60;;
3847;SDS011;1939;48.720;9.166;2022-12-10T09:38:46;43.07;;;23.47;;
3847;SDS011;1939;48.720;9.166;2022-12-10T09:46:12;43.40;;;21.50;;
3847;SDS011;1939;48.720;9.166;2022-12-10T09:48:51;41.20;;;19.90;;
3847;SDS011;1939;48.720;9.166;2022-12-10T09:53:44;43.50;;;21.90;;
3847;SDS011;1939;48.720;9.166;2022-12-10T09:56:14;40.97;;;22.10;;
3847;SDS011;1939;48.720;9.166;2022-12-10T09:58:42;47.13;;;23.13;;
3847;SDS011;1939;48.720;9.166;2022-12-10T10:01:09;48.20;;;22.43;;
3847;SDS011;1939;48.720;9.166;2022-12-10T10:03:37;48.10;;;20.40;;
3847;SDS011;1939;48.720;9.166;2022-12-10T10:06:03;39.13;;;20.07;;
3847;SDS011;1939;48.720;9.166;2022-12-10T10:10:54;46.57;;;21.87;;
3847;SDS011;1939;48.720;9.166;2022-12-10T10:13:26;38.40;;;20.47;;
3847;SDS011;1939;48.720;9.166;2022-12-10T10:15:54;37.97;;;17.90;;
3847;SDS011;1939;48.720;9.166;2022-12-10T10:20:51;44.17;;;20.83;;
3847;SDS011;1939;48.720;9.166;2022-12-10T10:23:16;41.60;;;20.23;;
3847;SDS011;1939;48.720;9.166;2022-12-10T10:25:42;42.37;;;20.87;;
3847;SDS011;1939;48.720;9.166;2022-12-10T10:28:10;45.07;;;20.50;;
3847;SDS011;1939;48.720;9.166;2022-12-10T10:30:35;41.90;;;20.50;;
3847;SDS011;1939;48.720;9.166;2022-12-10T10:33:01;43.30;;;21.93;;
3847;SDS011;1939;48.720;9.166;2022-12-10T10:35:33;43.07;;;21.07;;
3847;SDS011;1939;48.720;9.166;2022-12-10T10:38:04;44.00;;;25.00;;
3847;SDS011;1939;48.720;9.166;2022-12-10T10:40:39;43.60;;;21.77;;
3847;SDS011;1939;48.720;9.166;2022-12-10T10:43:05;42.27;;;20.43;;
3847;SDS011;1939;48.720;9.166;2022-12-10T10:45:35;47.50;;;20.93;;
3847;SDS011;1939;48.720;9.166;2022-12-10T10:50:36;40.00;;;19.43;;
3847;SDS011;1939;48.720;9.166;2022-12-10T10:53:02;36.80;;;19.83;;
3847;SDS011;1939;48.720;9.166;2022-12-10T10:55:30;35.33;;;19.10;;
3847;SDS011;1939;48.720;9.166;2022-12-10T10:57:56;36.43;;;18.47;;
3847;SDS011;1939;48.720;9.166;2022-12-10T11:00:21;43.33;;;21.33;;
3847;SDS011;1939;48.720;9.166;2022-12-10T11:02:50;36.53;;;18.77;;
3847;SDS011;1939;48.720;9.166;2022-12-10T11:05:23;39.10;;;17.10;;
3847;SDS011;1939;48.720;9.166;2022-12-10T11:10:24;42.30;;;20.83;;
3847;SDS011;1939;48.720;9.166;2022-12-10T11:12:54;33.20;;;18.40;;
3847;SDS011;1939;48.720;9.166;2022-12-10T11:17:51;34.77;;;18.23;;
3847;SDS011;1939;48.720;9.166;2022-12-10T11:22:49;37.97;;;20.00;;
3847;SDS011;1939;48.720;9.166;2022-12-10T11:25:15;38.30;;;18.53;;
3847;SDS011;1939;48.720;9.166;2022-12-10T11:30:21;37.73;;;19.90;;
3847;SDS011;1939;48.720;9.166;2022-12-10T11:37:53;42.07;;;22.83;;
3847;SDS011;1939;48.720;9.166;2022-12-10T11:56:02;33.87;;;18.07;;
3847;SDS011;1939;48.720;9.166;2022-12-10T12:01:27;35.87;;;17.10;;
3847;SDS011;1939;48.720;9.166;2022-12-10T12:04:10;32.43;;;15.50;;
3847;SDS011;1939;48.720;9.166;2022-12-10T12:09:15;34.43;;;16.50;;
3847;SDS011;1939;48.720;9.166;2022-12-10T12:11:47;34.20;;;16.73;;
3847;SDS011;1939;48.720;9.166;2022-12-10T12:14:27;31.70;;;16.97;;
3847;SDS011;1939;48.720;9.166;2022-12-10T12:19:22;28.07;;;14.90;;
3847;SDS011;1939;48.720;9.166;2022-12-10T12:21:49;37.13;;;17.90;;
3847;SDS011;1939;48.720;9.166;2022-12-10T12:24:16;32.87;;;15.30;;
3847;SDS011;1939;48.720;9.166;2022-12-10T12:26:46;34.03;;;17.27;;
3847;SDS011;1939;48.720;9.166;2022-12-10T12:29:23;35.73;;;16.83;;
3847;SDS011;1939;48.720;9.166;2022-12-10T12:32:10;28.70;;;15.60;;
3847;SDS011;1939;48.720;9.166;2022-12-10T12:37:02;36.97;;;16.80;;
3847;SDS011;1939;48.720;9.166;2022-12-10T12:42:02;31.03;;;17.13;;
3847;SDS011;1939;48.720;9.166;2022-12-10T12:44:56;33.17;;;16.77;;
3847;SDS011;1939;48.720;9.166;2022-12-10T12:47:28;33.13;;;16.40;;
3847;SDS011;1939;48.720;9.166;2022-12-10T12:49:56;33.33;;;18.23;;
3847;SDS011;1939;48.720;9.166;2022-12-10T12:52:26;29.43;;;15.50;;
3847;SDS011;1939;48.720;9.166;2022-12-10T12:54:57;33.00;;;16.87;;
3847;SDS011;1939;48.720;9.166;2022-12-10T13:00:10;31.27;;;14.23;;
3847;SDS011;1939;48.720;9.166;2022-12-10T13:02:58;27.87;;;15.63;;
3847;SDS011;1939;48.720;9.166;2022-12-10T13:05:32;36.13;;;17.87;;
3847;SDS011;1939;48.720;9.166;2022-12-10T13:10:45;30.97;;;15.83;;
3847;SDS011;1939;48.720;9.166;2022-12-10T13:13:24;35.70;;;18.23;;
3847;SDS011;1939;48.720;9.166;2022-12-10T13:15:50;55.03;;;23.60;;
3847;SDS011;1939;48.720;9.166;2022-12-10T13:28:21;32.67;;;16.13;;
3847;SDS011;1939;48.720;9.166;2022-12-10T13:33:44;30.10;;;16.00;;
3847;SDS011;1939;48.720;9.166;2022-12-10T13:36:10;33.67;;;17.03;;
3847;SDS011;1939;48.720;9.166;2022-12-10T13:38:54;27.57;;;15.30;;
3847;SDS011;1939;48.720;9.166;2022-12-10T13:41:20;32.97;;;15.33;;
3847;SDS011;1939;48.720;9.166;2022-12-10T13:44:11;37.60;;;16.87;;
3847;SDS011;1939;48.720;9.166;2022-12-10T13:46:53;35.47;;;16.73;;
3847;SDS011;1939;48.720;9.166;2022-12-10T13:49:19;32.10;;;16.50;;
3847;SDS011;1939;48.720;9.166;2022-12-10T13:51:55;35.07;;;17.47;;
3847;SDS011;1939;48.720;9.166;2022-12-10T13:57:03;35.87;;;15.60;;
3847;SDS011;1939;48.720;9.166;2022-12-10T14:07:44;39.60;;;18.53;;
3847;SDS011;1939;48.720;9.166;2022-12-10T14:10:13;31.27;;;15.83;;
3847;SDS011;1939;48.720;9.166;2022-12-10T14:12:40;35.07;;;18.07;;
3847;SDS011;1939;48.720;9.166;2022-12-10T14:17:41;34.10;;;18.20;;
3847;SDS011;1939;48.720;9.166;2022-12-10T14:20:08;31.57;;;14.57;;
3847;SDS011;1939;48.720;9.166;2022-12-10T14:22:34;40.63;;;17.90;;
3847;SDS011;1939;48.720;9.166;2022-12-10T14:25:04;33.77;;;16.87;;
3847;SDS011;1939;48.720;9.166;2022-12-10T14:27:32;36.58;;;17.40;;
3847;SDS011;1939;48.720;9.166;2022-12-10T14:29:58;36.87;;;17.43;;
3847;SDS011;1939;48.720;9.166;2022-12-10T14:32:29;33.85;;;18.27;;
3847;SDS011;1939;48.720;9.166;2022-12-10T14:34:56;36.60;;;17.10;;
3847;SDS011;1939;48.720;9.166;2022-12-10T14:37:23;36.47;;;16.93;;
3847;SDS011;1939;48.720;9.166;2022-12-10T14:39:50;33.43;;;16.73;;
3847;SDS011;1939;48.720;9.166;2022-12-10T14:42:15;37.67;;;17.13;;
3847;SDS011;1939;48.720;9.166;2022-12-10T14:44:41;33.67;;;17.63;;
3847;SDS011;1939;48.720;9.166;2022-12-10T14:47:16;40.50;;;18.30;;
3847;SDS011;1939;48.720;9.166;2022-12-10T14:49:43;27.77;;;14.80;;
3847;SDS011;1939;48.720;9.166;2022-12-10T14:52:11;33.37;;;18.00;;
3847;SDS011;1939;48.720;9.166;2022-12-10T14:54:36;32.57;;;16.20;;
3847;SDS011;1939;48.720;9.166;2022-12-10T14:57:05;37.23;;;16.40;;
3847;SDS011;1939;48.720;9.166;2022-12-10T14:59:35;30.00;;;16.67;;
3847;SDS011;1939;48.720;9.166;2022-12-10T15:02:04;32.00;;;16.87;;
3847;SDS011;1939;48.720;9.166;2022-12-10T15:04:39;26.67;;;15.13;;
3847;SDS011;1939;48.720;9.166;2022-12-10T15:07:05;34.77;;;15.67;;
3847;SDS011;1939;48.720;9.166;2022-12-10T15:09:30;30.57;;;15.17;;
3847;SDS011;1939;48.720;9.166;2022-12-10T15:11:57;31.57;;;15.70;;
3847;SDS011;1939;48.720;9.166;2022-12-10T15:14:22;31.40;;;15.30;;
3847;SDS011;1939;48.720;9.166;2022-12-10T15:16:48;35.07;;;15.13;;
3847;SDS011;1939;48.720;9.166;2022-12-10T15:21:42;33.10;;;17.60;;
3847;SDS011;1939;48.720;9.166;2022-12-10T15:24:19;37.90;;;15.80;;
3847;SDS011;1939;48.720;9.166;2022-12-10T15:26:46;36.10;;;17.10;;
3847;SDS011;1939;48.720;9.166;2022-12-10T15:31:46;35.73;;;15.67;;
3847;SDS011;1939;48.720;9.166;2022-12-10T15:34:12;35.50;;;16.07;;
3847;SDS011;1939;48.720;9.166;2022-12-10T15:36:41;28.23;;;14.40;;
3847;SDS011;1939;48.720;9.166;2022-12-10T15:41:42;33.93;;;16.37;;
3847;SDS011;1939;48.720;9.166;2022-12-10T15:46:49;47.15;;;25.15;;
3847;SDS011;1939;48.720;9.166;2022-12-10T15:49:14;36.87;;;17.40;;
3847;SDS011;1939;48.720;9.166;2022-12-10T15:51:40;31.20;;;14.60;;
3847;SDS011;1939;48.720;9.166;2022-12-10T15:54:22;41.50;;;17.57;;
3847;SDS011;1939;48.720;9.166;2022-12-10T15:56:47;29.63;;;14.47;;
3847;SDS011;1939;48.720;9.166;2022-12-10T15:59:13;31.43;;;14.93;;
3847;SDS011;1939;48.720;9.166;2022-12-10T16:01:38;31.80;;;14.40;;
3847;SDS011;1939;48.720;9.166;2022-12-10T16:04:04;33.83;;;16.90;;
3847;SDS011;1939;48.720;9.166;2022-12-10T16:06:29;38.65;;;18.35;;
3847;SDS011;1939;48.720;9.166;2022-12-10T16:08:55;25.83;;;13.63;;
3847;SDS011;1939;48.720;9.166;2022-12-10T16:11:20;34.17;;;14.80;;
3847;SDS011;1939;48.720;9.166;2022-12-10T16:13:48;31.23;;;15.93;;
3847;SDS011;1939;48.720;9.166;2022-12-10T16:16:13;31.03;;;16.20;;
3847;SDS011;1939;48.720;9.166;2022-12-10T16:18:38;30.80;;;14.20;;
3847;SDS011;1939;48.720;9.166;2022-12-10T16:21:04;31.07;;;14.60;;
3847;SDS011;1939;48.720;9.166;2022-12-10T16:23:30;29.60;;;15.37;;
3847;SDS011;1939;48.720;9.166;2022-12-10T16:25:55;26.23;;;13.40;;
3847;SDS011;1939;48.720;9.166;2022-12-10T16:28:21;36.17;;;15.00;;
3847;SDS011;1939;48.720;9.166;2022-12-10T16:30:56;29.37;;;15.10;;
3847;SDS011;1939;48.720;9.166;2022-12-10T16:33:23;25.90;;;14.00;;
3847;SDS011;1939;48.720;9.166;2022-12-10T16:35:49;34.83;;;14.80;;
3847;SDS011;1939;48.720;9.166;2022-12-10T16:38:14;31.93;;;15.00;;
3847;SDS011;1939;48.720;9.166;2022-12-10T16:40:40;28.73;;;14.57;;
3847;SDS011;1939;48.720;9.166;2022-12-10T16:43:08;36.50;;;14.67;;
3847;SDS011;1939;48.720;9.166;2022-12-10T16:45:37;30.47;;;16.30;;
3847;SDS011;1939;48.720;9.166;2022-12-10T16:48:03;43.23;;;14.60;;
3847;SDS011;1939;48.720;9.166;2022-12-10T16:50:29;30.10;;;13.37;;
3847;SDS011;1939;48.720;9.166;2022-12-10T16:52:54;24.23;;;13.23;;
3847;SDS011;1939;48.720;9.166;2022-12-10T16:55:21;26.27;;;14.40;;